createdAt,value
2018-03-22T00:00:17.322Z,1014.55
2018-03-22T00:00:57.724Z,1014.51
2018-03-22T00:01:38.128Z,1014.52
2018-03-22T00:02:18.501Z,1014.51
2018-03-22T00:02:58.883Z,1014.55
2018-03-22T00:03:39.323Z,1014.5
2018-03-22T00:04:19.707Z,1014.51
2018-03-22T00:05:00.142Z,1014.51
2018-03-22T00:05:40.505Z,1014.5
2018-03-22T00:06:20.909Z,1014.52
2018-03-22T00:07:01.312Z,1014.5
2018-03-22T00:07:41.710Z,1014.5
2018-03-22T00:08:22.115Z,1014.49
2018-03-22T00:09:02.488Z,1014.48
2018-03-22T00:09:42.926Z,1014.48
2018-03-22T00:10:23.272Z,1014.47
2018-03-22T00:11:03.681Z,1014.49
2018-03-22T00:11:44.095Z,1014.45
2018-03-22T00:12:24.484Z,1014.43
2018-03-22T00:13:04.897Z,1014.4
2018-03-22T00:13:45.298Z,1014.42
2018-03-22T00:14:25.679Z,1014.42
2018-03-22T00:15:06.064Z,1014.43
2018-03-22T00:15:46.487Z,1014.44
2018-03-22T00:16:26.925Z,1014.44
2018-03-22T00:17:07.285Z,1014.46
2018-03-22T00:17:47.676Z,1014.42
2018-03-22T00:18:28.082Z,1014.4
2018-03-22T00:19:08.480Z,1014.43
2018-03-22T00:19:48.922Z,1014.41
2018-03-22T00:20:29.385Z,1014.43
2018-03-22T00:21:09.774Z,1014.43
2018-03-22T00:21:50.156Z,1014.41
2018-03-22T00:22:30.525Z,1014.49
2018-03-22T00:23:10.919Z,1014.39
2018-03-22T00:23:51.339Z,1014.36
2018-03-22T00:24:31.716Z,1014.35
2018-03-22T00:25:12.116Z,1014.33
2018-03-22T00:25:52.497Z,1014.3
2018-03-22T00:26:32.894Z,1014.28
2018-03-22T00:27:13.251Z,1014.26
2018-03-22T00:27:53.684Z,1014.27
2018-03-22T00:28:34.065Z,1014.27
2018-03-22T00:29:14.521Z,1014.28
2018-03-22T00:29:54.900Z,1014.24
2018-03-22T00:30:35.313Z,1014.25
2018-03-22T00:31:15.748Z,1014.23
2018-03-22T00:31:56.139Z,1014.24
2018-03-22T00:32:36.512Z,1014.2
2018-03-22T00:33:16.929Z,1014.24
2018-03-22T00:33:57.334Z,1014.23
2018-03-22T00:34:37.711Z,1014.21
2018-03-22T00:35:18.076Z,1014.21
2018-03-22T00:40:51.203Z,1014.16
2018-03-22T00:41:31.556Z,1014.13
2018-03-22T00:42:11.956Z,1014.11
2018-03-22T00:42:52.382Z,1014.14
2018-03-22T00:43:32.814Z,1014.11
2018-03-22T00:44:13.235Z,1014.1
2018-03-22T00:44:53.582Z,1014.07
2018-03-22T00:45:33.988Z,1014.05
2018-03-22T00:46:14.351Z,1014.03
2018-03-22T00:46:54.761Z,1014.01
2018-03-22T00:47:35.199Z,1014.01
2018-03-22T00:48:15.577Z,1013.99
2018-03-22T00:48:56.010Z,1014.01
2018-03-22T00:49:36.413Z,1013.99
2018-03-22T00:50:16.857Z,1013.95
2018-03-22T00:50:57.247Z,1013.95
2018-03-22T00:51:37.617Z,1013.94
2018-03-22T00:55:28.152Z,1013.85
2018-03-22T00:56:08.520Z,1013.91
2018-03-22T00:56:48.941Z,1013.89
2018-03-22T00:57:29.378Z,1013.88
2018-03-22T00:58:09.751Z,1013.89
2018-03-22T00:58:50.162Z,1013.85
2018-03-22T00:59:30.504Z,1013.82
2018-03-22T01:00:10.908Z,1013.82
2018-03-22T01:00:51.320Z,1013.79
2018-03-22T01:01:31.669Z,1013.76
2018-03-22T01:02:12.051Z,1013.72
2018-03-22T01:02:52.441Z,1013.74
2018-03-22T01:03:32.803Z,1013.72
2018-03-22T01:04:13.280Z,1013.7
2018-03-22T01:04:53.642Z,1013.71
2018-03-22T01:05:34.028Z,1013.68
2018-03-22T01:06:14.487Z,1013.65
2018-03-22T01:06:54.868Z,1013.67
2018-03-22T01:07:35.279Z,1013.64
2018-03-22T01:08:15.706Z,1013.63
2018-03-22T01:08:56.091Z,1013.63
2018-03-22T01:09:36.488Z,1013.61
2018-03-22T01:10:16.858Z,1013.64
2018-03-22T01:10:57.292Z,1013.57
2018-03-22T01:11:37.695Z,1013.58
2018-03-22T01:12:18.127Z,1013.56
2018-03-22T01:12:58.470Z,1013.52
2018-03-22T01:13:38.909Z,1013.5
2018-03-22T01:14:19.299Z,1013.48
2018-03-22T01:14:59.690Z,1013.49
2018-03-22T01:15:40.105Z,1013.45
2018-03-22T01:16:20.526Z,1013.49
2018-03-22T01:17:00.949Z,1013.46
2018-03-22T01:17:41.306Z,1013.46
2018-03-22T01:18:21.735Z,1013.47
2018-03-22T01:19:02.133Z,1013.44
2018-03-22T01:19:42.525Z,1013.43
2018-03-22T01:20:22.942Z,1013.41
2018-03-22T01:21:03.343Z,1013.42
2018-03-22T01:21:43.710Z,1013.39
2018-03-22T01:22:24.107Z,1013.41
2018-03-22T01:23:04.525Z,1013.41
2018-03-22T01:23:44.907Z,1013.41
2018-03-22T01:24:25.353Z,1013.37
2018-03-22T01:25:05.695Z,1013.38
2018-03-22T01:25:46.066Z,1013.37
2018-03-22T01:26:26.501Z,1013.33
2018-03-22T01:27:06.914Z,1013.34
2018-03-22T01:27:47.344Z,1013.3
2018-03-22T01:28:27.700Z,1013.29
2018-03-22T01:29:08.118Z,1013.28
2018-03-22T01:29:48.514Z,1013.27
2018-03-22T01:30:28.939Z,1013.26
2018-03-22T01:31:09.331Z,1013.25
2018-03-22T01:31:49.718Z,1013.25
2018-03-22T01:32:30.103Z,1013.25
2018-03-22T01:33:10.520Z,1013.26
2018-03-22T01:33:50.895Z,1013.25
2018-03-22T01:34:31.294Z,1013.23
2018-03-22T01:35:11.675Z,1013.2
2018-03-22T01:35:52.092Z,1013.18
2018-03-22T01:36:32.547Z,1013.14
2018-03-22T01:37:12.909Z,1013.13
2018-03-22T01:37:53.350Z,1013.1
2018-03-22T01:38:33.706Z,1013.11
2018-03-22T01:39:14.102Z,1013.11
2018-03-22T01:39:54.521Z,1013.08
2018-03-22T01:40:34.935Z,1013.04
2018-03-22T01:41:15.372Z,1013.04
2018-03-22T01:41:55.722Z,1013.02
2018-03-22T01:42:36.131Z,1013.01
2018-03-22T01:43:16.506Z,1013.01
2018-03-22T01:43:56.908Z,1013.01
2018-03-22T01:44:37.290Z,1013.01
2018-03-22T01:45:17.740Z,1012.97
2018-03-22T01:45:58.104Z,1012.94
2018-03-22T01:46:38.500Z,1012.96
2018-03-22T01:47:18.924Z,1012.99
2018-03-22T01:47:59.277Z,1012.93
2018-03-22T01:48:39.670Z,1012.93
2018-03-22T01:49:20.039Z,1012.86
2018-03-22T01:50:00.454Z,1012.9
2018-03-22T01:50:40.849Z,1012.94
2018-03-22T01:51:21.232Z,1012.89
2018-03-22T01:53:19.126Z,1012.81
2018-03-22T01:53:59.521Z,1012.86
2018-03-22T01:54:39.938Z,1012.83
2018-03-22T01:55:20.342Z,1012.83
2018-03-22T01:56:00.739Z,1012.8
2018-03-22T01:56:41.133Z,1012.78
2018-03-22T01:57:21.511Z,1012.74
2018-03-22T01:58:01.908Z,1012.74
2018-03-22T01:58:42.287Z,1012.72
2018-03-22T01:59:22.695Z,1012.7
2018-03-22T02:00:03.088Z,1012.75
2018-03-22T02:00:43.481Z,1012.69
2018-03-22T02:01:23.865Z,1012.71
2018-03-22T02:02:04.262Z,1012.71
2018-03-22T02:02:44.673Z,1012.67
2018-03-22T02:03:25.053Z,1012.66
2018-03-22T02:04:05.426Z,1012.66
2018-03-22T02:04:45.897Z,1012.64
2018-03-22T02:05:26.227Z,1012.64
2018-03-22T02:06:06.642Z,1012.61
2018-03-22T02:06:47.011Z,1012.57
2018-03-22T02:07:27.399Z,1012.56
2018-03-22T02:08:07.820Z,1012.57
2018-03-22T02:08:48.252Z,1012.59
2018-03-22T02:09:28.699Z,1012.53
2018-03-22T02:10:09.074Z,1012.55
2018-03-22T02:10:49.407Z,1012.5
2018-03-22T02:11:29.874Z,1012.49
2018-03-22T02:12:10.246Z,1012.49
2018-03-22T02:12:50.656Z,1012.49
2018-03-22T02:13:31.032Z,1012.47
2018-03-22T02:14:11.486Z,1012.45
2018-03-22T02:14:51.811Z,1012.43
2018-03-22T02:15:32.210Z,1012.4
2018-03-22T02:16:12.620Z,1012.43
2018-03-22T02:16:52.986Z,1012.33
2018-03-22T02:17:33.365Z,1012.38
2018-03-22T02:18:13.792Z,1012.34
2018-03-22T02:18:54.168Z,1012.36
2018-03-22T02:19:34.583Z,1012.3
2018-03-22T02:20:14.991Z,1012.27
2018-03-22T02:20:55.397Z,1012.29
2018-03-22T02:21:35.748Z,1012.28
2018-03-22T02:22:16.153Z,1012.29
2018-03-22T02:22:56.554Z,1012.28
2018-03-22T02:23:37.002Z,1012.25
2018-03-22T02:24:17.377Z,1012.26
2018-03-22T02:24:57.735Z,1012.23
2018-03-22T02:25:38.154Z,1012.2
2018-03-22T02:26:18.579Z,1012.2
2018-03-22T02:26:59.059Z,1012.18
2018-03-22T02:27:39.443Z,1012.16
2018-03-22T02:28:19.849Z,1012.15
2018-03-22T02:29:00.232Z,1012.15
2018-03-22T02:30:58.167Z,1012.14
2018-03-22T02:31:38.543Z,1012.05
2018-03-22T02:32:18.996Z,1012.09
2018-03-22T02:32:59.391Z,1012.06
2018-03-22T02:33:39.794Z,1012.06
2018-03-22T02:34:20.140Z,1011.98
2018-03-22T02:35:00.546Z,1011.98
2018-03-22T02:35:41.000Z,1011.91
2018-03-22T02:36:21.348Z,1011.91
2018-03-22T02:37:01.791Z,1011.89
2018-03-22T02:37:42.200Z,1011.91
2018-03-22T02:38:22.569Z,1011.91
2018-03-22T02:39:03.002Z,1011.88
2018-03-22T02:39:43.394Z,1011.85
2018-03-22T02:40:23.803Z,1011.82
2018-03-22T02:41:04.197Z,1011.75
2018-03-22T02:41:44.586Z,1011.81
2018-03-22T02:42:24.970Z,1011.8
2018-03-22T02:43:05.396Z,1011.76
2018-03-22T02:43:45.785Z,1011.74
2018-03-22T02:44:26.184Z,1011.74
2018-03-22T02:45:06.579Z,1011.72
2018-03-22T02:45:46.980Z,1011.68
2018-03-22T02:46:27.417Z,1011.68
2018-03-22T02:47:07.858Z,1011.66
2018-03-22T02:47:48.226Z,1011.68
2018-03-22T02:48:28.572Z,1011.7
2018-03-22T02:49:08.966Z,1011.67
2018-03-22T02:49:49.355Z,1011.64
2018-03-22T02:50:29.755Z,1011.63
2018-03-22T02:51:10.229Z,1011.6
2018-03-22T02:51:50.530Z,1011.63
2018-03-22T02:52:30.980Z,1011.6
2018-03-22T02:53:11.323Z,1011.61
2018-03-22T02:53:51.737Z,1011.6
2018-03-22T02:54:32.207Z,1011.58
2018-03-22T02:55:12.590Z,1011.58
2018-03-22T02:55:52.988Z,1011.54
2018-03-22T02:56:33.374Z,1011.54
2018-03-22T02:57:13.794Z,1011.54
2018-03-22T02:57:54.181Z,1011.52
2018-03-22T02:58:34.550Z,1011.54
2018-03-22T02:59:14.955Z,1011.53
2018-03-22T02:59:55.368Z,1011.51
2018-03-22T03:00:35.810Z,1011.52
2018-03-22T03:01:16.212Z,1011.51
2018-03-22T03:01:56.603Z,1011.54
2018-03-22T03:02:37.007Z,1011.53
2018-03-22T03:03:17.452Z,1011.49
2018-03-22T03:03:57.842Z,1011.51
2018-03-22T03:04:38.258Z,1011.49
2018-03-22T03:05:18.641Z,1011.47
2018-03-22T03:05:59.030Z,1011.45
2018-03-22T03:06:39.413Z,1011.48
2018-03-22T03:07:19.797Z,1011.48
2018-03-22T03:08:00.215Z,1011.42
2018-03-22T03:08:40.602Z,1011.45
2018-03-22T03:09:21.013Z,1011.45
2018-03-22T03:10:01.406Z,1011.45
2018-03-22T03:10:41.828Z,1011.49
2018-03-22T03:11:22.228Z,1011.5
2018-03-22T03:12:02.688Z,1011.51
2018-03-22T03:12:43.075Z,1011.54
2018-03-22T03:13:23.450Z,1011.44
2018-03-22T03:14:03.850Z,1011.45
2018-03-22T03:14:44.218Z,1011.45
2018-03-22T03:15:24.610Z,1011.39
2018-03-22T03:16:05.024Z,1011.4
2018-03-22T03:16:45.421Z,1011.37
2018-03-22T03:17:25.860Z,1011.33
2018-03-22T03:18:06.232Z,1011.31
2018-03-22T03:18:46.658Z,1011.29
2018-03-22T03:19:27.085Z,1011.32
2018-03-22T03:20:07.485Z,1011.35
2018-03-22T03:20:47.882Z,1011.32
2018-03-22T03:21:28.293Z,1011.29
2018-03-22T03:22:08.746Z,1011.33
2018-03-22T03:22:49.125Z,1011.31
2018-03-22T03:23:29.546Z,1011.26
2018-03-22T03:24:09.964Z,1011.26
2018-03-22T03:24:50.374Z,1011.27
2018-03-22T03:25:30.826Z,1011.18
2018-03-22T03:26:11.188Z,1011.28
2018-03-22T03:26:51.617Z,1011.31
2018-03-22T03:27:32.008Z,1011.31
2018-03-22T03:28:12.393Z,1011.27
2018-03-22T03:28:52.808Z,1011.24
2018-03-22T03:29:33.195Z,1011.22
2018-03-22T03:30:13.649Z,1011.21
2018-03-22T03:30:54.066Z,1011.22
2018-03-22T03:31:34.435Z,1011.21
2018-03-22T03:32:14.837Z,1011.2
2018-03-22T03:32:55.291Z,1011.17
2018-03-22T03:33:35.644Z,1011.16
2018-03-22T03:34:16.065Z,1011.08
2018-03-22T03:34:56.433Z,1011.09
2018-03-22T03:35:36.870Z,1011.09
2018-03-22T03:36:17.234Z,1011.09
2018-03-22T03:36:57.657Z,1011.13
2018-03-22T03:37:38.066Z,1011.15
2018-03-22T03:38:18.465Z,1011.15
2018-03-22T03:38:58.848Z,1011.1
2018-03-22T03:39:39.305Z,1011.13
2018-03-22T03:40:19.631Z,1011.12
2018-03-22T03:41:00.038Z,1011.07
2018-03-22T03:41:40.425Z,1011.09
2018-03-22T03:42:20.811Z,1011.07
2018-03-22T03:43:01.250Z,1011.01
2018-03-22T03:43:41.606Z,1011.04
2018-03-22T03:44:22.057Z,1011.06
2018-03-22T03:45:02.425Z,1010.99
2018-03-22T03:45:42.876Z,1011.02
2018-03-22T03:46:23.184Z,1011.02
2018-03-22T03:47:03.587Z,1010.97
2018-03-22T03:47:44.008Z,1010.95
2018-03-22T03:48:24.375Z,1010.94
2018-03-22T03:49:04.767Z,1010.96
2018-03-22T03:49:45.226Z,1010.98
2018-03-22T03:52:13.382Z,1010.93
2018-03-22T03:52:53.733Z,1010.91
2018-03-22T03:53:34.170Z,1010.92
2018-03-22T03:54:14.588Z,1010.86
2018-03-22T03:54:54.978Z,1010.87
2018-03-22T03:55:35.337Z,1010.87
2018-03-22T03:56:15.772Z,1010.86
2018-03-22T03:56:56.147Z,1010.85
2018-03-22T03:57:36.544Z,1010.8
2018-03-22T03:58:16.976Z,1010.74
2018-03-22T03:58:57.362Z,1010.73
2018-03-22T03:59:37.743Z,1010.76
2018-03-22T04:00:18.184Z,1010.73
2018-03-22T04:00:58.548Z,1010.74
2018-03-22T04:01:39.019Z,1010.7
2018-03-22T04:02:19.368Z,1010.69
2018-03-22T04:02:59.755Z,1010.68
2018-03-22T04:03:40.192Z,1010.69
2018-03-22T04:04:20.600Z,1010.68
2018-03-22T04:05:00.954Z,1010.62
2018-03-22T04:05:41.346Z,1010.59
2018-03-22T04:06:21.728Z,1010.58
2018-03-22T04:07:02.141Z,1010.58
2018-03-22T04:51:33.388Z,1010
2018-03-22T04:52:13.725Z,1009.99
2018-03-22T04:52:54.153Z,1009.91
2018-03-22T04:53:34.500Z,1009.93
2018-03-22T04:54:14.927Z,1009.95
2018-03-22T04:54:55.383Z,1009.9
2018-03-22T04:55:35.728Z,1009.94
2018-03-22T04:56:16.125Z,1009.94
2018-03-22T04:56:56.497Z,1009.91
2018-03-22T04:57:36.893Z,1009.95
2018-03-22T04:58:17.336Z,1009.88
2018-03-22T04:58:57.726Z,1009.85
2018-03-22T04:59:38.158Z,1009.77
2018-03-22T05:00:18.572Z,1009.77
2018-03-22T05:00:58.979Z,1009.73
2018-03-22T05:01:39.446Z,1009.7
2018-03-22T05:02:19.809Z,1009.68
2018-03-22T05:03:00.207Z,1009.68
2018-03-22T05:03:40.649Z,1009.68
2018-03-22T05:04:21.009Z,1009.67
2018-03-22T05:05:01.419Z,1009.65
2018-03-22T05:05:41.887Z,1009.63
2018-03-22T05:06:22.276Z,1009.66
2018-03-22T05:07:02.682Z,1009.66
2018-03-22T05:07:43.051Z,1009.63
2018-03-22T05:08:23.475Z,1009.69
2018-03-22T05:09:03.916Z,1009.67
2018-03-22T05:09:44.323Z,1009.6
2018-03-22T05:10:24.683Z,1009.64
2018-03-22T05:11:05.087Z,1009.65
2018-03-22T05:11:45.481Z,1009.67
2018-03-22T05:12:25.903Z,1009.62
2018-03-22T05:13:06.277Z,1009.62
2018-03-22T05:13:46.717Z,1009.61
2018-03-22T05:14:27.058Z,1009.61
2018-03-22T05:15:07.471Z,1009.63
2018-03-22T05:15:47.929Z,1009.62
2018-03-22T05:16:28.334Z,1009.61
2018-03-22T05:17:08.728Z,1009.58
2018-03-22T05:17:49.076Z,1009.57
2018-03-22T05:18:29.518Z,1009.55
2018-03-22T05:19:09.927Z,1009.58
2018-03-22T05:19:50.307Z,1009.56
2018-03-22T05:20:30.717Z,1009.6
2018-03-22T05:21:11.145Z,1009.57
2018-03-22T05:21:51.514Z,1009.58
2018-03-22T05:22:32.369Z,1009.68
2018-03-22T05:23:12.742Z,1009.67
2018-03-22T05:23:53.166Z,1009.71
2018-03-22T05:24:33.584Z,1009.7
2018-03-22T05:25:13.994Z,1009.74
2018-03-22T05:25:54.364Z,1009.75
2018-03-22T05:26:34.794Z,1009.81
2018-03-22T05:27:15.226Z,1009.82
2018-03-22T05:27:55.684Z,1009.76
2018-03-22T05:28:36.120Z,1009.81
2018-03-22T05:29:23.403Z,1009.75
2018-03-22T05:30:03.844Z,1009.74
2018-03-22T05:30:44.265Z,1009.72
2018-03-22T05:31:24.616Z,1009.69
2018-03-22T05:32:05.027Z,1009.61
2018-03-22T05:32:45.409Z,1009.62
2018-03-22T05:33:25.824Z,1009.64
2018-03-22T05:34:06.240Z,1009.64
2018-03-22T05:34:46.611Z,1009.66
2018-03-22T05:35:26.982Z,1009.6
2018-03-22T05:36:07.439Z,1009.67
2018-03-22T05:36:47.819Z,1009.65
2018-03-22T05:37:28.235Z,1009.69
2018-03-22T05:38:08.627Z,1009.67
2018-03-22T05:38:49.072Z,1009.68
2018-03-22T05:39:29.411Z,1009.62
2018-03-22T05:40:09.881Z,1009.67
2018-03-22T05:40:50.311Z,1009.68
2018-03-22T05:41:30.668Z,1009.63
2018-03-22T05:42:11.112Z,1009.61
2018-03-22T05:42:51.498Z,1009.56
2018-03-22T05:43:31.913Z,1009.59
2018-03-22T05:44:12.327Z,1009.58
2018-03-22T05:44:52.714Z,1009.57
2018-03-22T05:45:33.135Z,1009.59
2018-03-22T05:46:13.560Z,1009.58
2018-03-22T05:46:53.947Z,1009.56
2018-03-22T05:47:34.338Z,1009.44
2018-03-22T05:48:14.762Z,1009.41
2018-03-22T05:48:55.178Z,1009.48
2018-03-22T05:49:35.588Z,1009.45
2018-03-22T05:50:15.971Z,1009.42
2018-03-22T05:50:56.401Z,1009.42
2018-03-22T05:51:36.748Z,1009.38
2018-03-22T05:52:17.147Z,1009.43
2018-03-22T05:52:57.593Z,1009.45
2018-03-22T05:53:37.971Z,1009.39
2018-03-22T05:54:18.384Z,1009.39
2018-03-22T05:54:58.802Z,1009.37
2018-03-22T05:55:39.228Z,1009.31
2018-03-22T05:56:19.666Z,1009.35
2018-03-22T05:57:00.378Z,1009.29
2018-03-22T05:57:40.541Z,1009.31
2018-03-22T05:58:20.958Z,1009.24
2018-03-22T05:59:01.340Z,1009.24
2018-03-22T05:59:41.750Z,1009.28
2018-03-22T06:00:22.189Z,1009.21
2018-03-22T06:01:02.598Z,1009.2
2018-03-22T06:01:42.981Z,1009.26
2018-03-22T06:02:23.361Z,1009.24
2018-03-22T06:03:03.835Z,1009.2
2018-03-22T06:03:44.207Z,1009.21
2018-03-22T06:04:24.577Z,1009.25
2018-03-22T06:05:04.978Z,1009.21
2018-03-22T06:05:45.332Z,1009.21
2018-03-22T06:06:25.715Z,1009.17
2018-03-22T06:07:06.143Z,1009.15
2018-03-22T06:07:46.570Z,1009.13
2018-03-22T06:08:27.002Z,1009.07
2018-03-22T06:09:07.476Z,1009.04
2018-03-22T06:09:47.822Z,1009.08
2018-03-22T06:10:28.289Z,1009.08
2018-03-22T06:11:08.660Z,1009.11
2018-03-22T06:11:49.106Z,1009.01
2018-03-22T06:12:29.514Z,1008.96
2018-03-22T06:13:09.894Z,1008.93
2018-03-22T06:13:50.354Z,1008.97
2018-03-22T06:14:30.762Z,1008.95
2018-03-22T06:15:11.183Z,1008.91
2018-03-22T06:15:51.718Z,1008.97
2018-03-22T06:16:32.150Z,1008.97
2018-03-22T06:17:12.483Z,1009.04
2018-03-22T06:17:52.935Z,1008.94
2018-03-22T06:18:33.298Z,1008.96
2018-03-22T06:19:13.726Z,1008.93
2018-03-22T06:19:54.113Z,1009.04
2018-03-22T06:20:34.541Z,1009.05
2018-03-22T06:21:15.079Z,1009.16
2018-03-22T06:21:55.564Z,1009.13
2018-03-22T06:22:35.981Z,1009.1
2018-03-22T06:23:16.371Z,1009.1
2018-03-22T06:23:56.888Z,1009.12
2018-03-22T06:24:37.202Z,1009.17
2018-03-22T06:25:18.396Z,1009.14
2018-03-22T06:25:58.808Z,1009.17
2018-03-22T06:26:39.256Z,1009.19
2018-03-22T06:27:19.786Z,1009.18
2018-03-22T06:28:00.065Z,1009.15
2018-03-22T06:28:40.548Z,1009.22
2018-03-22T06:29:20.966Z,1009.26
2018-03-22T06:30:01.374Z,1009.24
2018-03-22T06:30:41.771Z,1009.24
2018-03-22T06:31:22.197Z,1009.16
2018-03-22T06:32:02.784Z,1009.33
2018-03-22T06:32:43.243Z,1009.32
2018-03-22T06:33:23.620Z,1009.26
2018-03-22T06:34:04.413Z,1009.13
2018-03-22T06:34:45.534Z,1009.14
2018-03-22T06:35:25.911Z,1009.19
2018-03-22T06:37:47.750Z,1009.13
2018-03-22T06:38:28.759Z,1009.14
2018-03-22T06:39:08.876Z,1008.96
2018-03-22T06:39:49.330Z,1009.05
2018-03-22T06:40:29.703Z,1009.11
2018-03-22T06:41:10.812Z,1009.05
2018-03-22T06:41:52.612Z,1008.99
2018-03-22T06:42:36.283Z,1009
2018-03-22T06:43:19.361Z,1009.03
2018-03-22T06:44:00.147Z,1008.97
2018-03-22T06:44:40.703Z,1008.93
2018-03-22T06:45:21.792Z,1009.03
2018-03-22T06:46:02.304Z,1008.94
2018-03-22T06:46:45.259Z,1008.92
2018-03-22T06:47:26.671Z,1008.94
2018-03-22T06:48:11.195Z,1008.94
2018-03-22T06:48:59.122Z,1008.98
2018-03-22T06:49:43.362Z,1008.9
2018-03-22T06:50:24.245Z,1008.93
2018-03-22T06:51:06.221Z,1008.92
2018-03-22T06:51:48.503Z,1008.95
2018-03-22T06:52:28.914Z,1008.98
2018-03-22T06:53:09.506Z,1008.98
2018-03-22T06:53:50.834Z,1008.97
2018-03-22T06:54:33.480Z,1009.01
2018-03-22T06:55:13.953Z,1008.96
2018-03-22T06:55:57.292Z,1008.98
2018-03-22T06:56:38.558Z,1008.99
2018-03-22T06:57:19.799Z,1008.94
2018-03-22T06:58:00.526Z,1008.93
2018-03-22T06:58:41.113Z,1008.89
2018-03-22T06:59:22.406Z,1008.89
2018-03-22T07:00:03.268Z,1008.9
2018-03-22T07:00:44.525Z,1008.95
2018-03-22T07:01:25.358Z,1008.89
2018-03-22T07:02:06.062Z,1008.89
2018-03-22T07:02:49.066Z,1008.9
2018-03-22T07:03:29.856Z,1008.9
2018-03-22T07:04:10.591Z,1008.86
2018-03-22T07:04:50.972Z,1008.86
2018-03-22T07:05:32.609Z,1008.84
2018-03-22T07:06:13.482Z,1008.82
2018-03-22T07:06:53.899Z,1008.88
2018-03-22T07:07:35.595Z,1008.87
2018-03-22T07:08:17.244Z,1008.83
2018-03-22T07:09:00.522Z,1008.79
2018-03-22T07:09:41.125Z,1008.8
2018-03-22T07:10:22.782Z,1008.75
2018-03-22T07:11:03.317Z,1008.75
2018-03-22T07:11:44.229Z,1008.69
2018-03-22T07:12:27.117Z,1008.72
2018-03-22T07:13:07.548Z,1008.6
2018-03-22T07:13:48.417Z,1008.64
2018-03-22T07:14:30.042Z,1008.62
2018-03-22T07:15:10.599Z,1008.63
2018-03-22T07:15:50.981Z,1008.67
2018-03-22T07:16:33.919Z,1008.62
2018-03-22T07:17:14.839Z,1008.66
2018-03-22T07:17:55.365Z,1008.58
2018-03-22T07:18:36.203Z,1008.56
2018-03-22T07:19:17.881Z,1008.57
2018-03-22T07:20:00.140Z,1008.57
2018-03-22T07:20:40.950Z,1008.58
2018-03-22T07:21:22.030Z,1008.55
2018-03-22T07:22:02.868Z,1008.55
2018-03-22T07:22:44.068Z,1008.54
2018-03-22T07:23:26.582Z,1008.53
2018-03-22T07:24:07.786Z,1008.5
2018-03-22T07:24:50.381Z,1008.53
2018-03-22T07:25:31.393Z,1008.52
2018-03-22T07:26:12.946Z,1008.51
2018-03-22T07:26:53.496Z,1008.49
2018-03-22T07:27:34.398Z,1008.51
2018-03-22T07:28:25.662Z,1008.49
2018-03-22T07:29:07.321Z,1008.45
2018-03-22T07:29:48.645Z,1008.45
2018-03-22T07:30:29.337Z,1008.43
2018-03-22T07:31:12.248Z,1008.51
2018-03-22T07:31:53.337Z,1008.47
2018-03-22T07:32:34.675Z,1008.48
2018-03-22T07:33:15.499Z,1008.43
2018-03-22T07:33:56.932Z,1008.5
2018-03-22T07:34:37.312Z,1008.49
2018-03-22T07:35:18.274Z,1008.49
2018-03-22T07:35:59.026Z,1008.45
2018-03-22T07:36:40.914Z,1008.45
2018-03-22T07:37:21.073Z,1008.49
2018-03-22T07:38:02.430Z,1008.45
2018-03-22T07:38:44.290Z,1008.41
2018-03-22T07:39:25.049Z,1008.5
2018-03-22T07:40:07.591Z,1008.39
2018-03-22T07:40:48.288Z,1008.38
2018-03-22T07:41:29.111Z,1008.33
2018-03-22T07:42:09.535Z,1008.34
2018-03-22T07:42:50.322Z,1008.28
2018-03-22T07:43:33.799Z,1008.26
2018-03-22T07:44:24.695Z,1008.31
2018-03-22T07:45:06.167Z,1008.23
2018-03-22T07:45:50.638Z,1008.17
2018-03-22T07:46:32.241Z,1008.11
2018-03-22T07:47:12.808Z,1008.14
2018-03-22T07:47:54.756Z,1008.18
2018-03-22T07:48:36.163Z,1008.17
2018-03-22T07:49:17.870Z,1008.14
2018-03-22T07:49:59.851Z,1008.08
2018-03-22T07:50:43.884Z,1008.11
2018-03-22T07:51:25.065Z,1008.12
2018-03-22T07:52:06.588Z,1008.04
2018-03-22T07:52:48.712Z,1008.07
2018-03-22T07:53:29.565Z,1008.07
2018-03-22T07:54:10.583Z,1008.07
2018-03-22T07:54:52.312Z,1008.01
2018-03-22T07:55:32.982Z,1007.96
2018-03-22T07:56:14.704Z,1007.99
2018-03-22T07:56:56.294Z,1007.99
2018-03-22T07:57:37.577Z,1008.04
2018-03-22T07:58:17.956Z,1008.02
2018-03-22T07:58:58.784Z,1008.01
2018-03-22T07:59:39.712Z,1007.96
2018-03-22T08:00:20.215Z,1007.89
2018-03-22T08:01:01.219Z,1007.98
2018-03-22T08:07:58.458Z,1007.83
2018-03-22T08:08:39.775Z,1007.83
2018-03-22T08:09:21.062Z,1007.85
2018-03-22T08:10:02.363Z,1007.88
2018-03-22T08:10:43.065Z,1007.86
2018-03-22T08:11:23.671Z,1007.82
2018-03-22T08:12:06.279Z,1007.83
2018-03-22T08:12:47.486Z,1007.87
2018-03-22T08:13:28.576Z,1007.88
2018-03-22T08:14:08.792Z,1007.86
2018-03-22T08:14:49.640Z,1007.79
2018-03-22T08:15:31.233Z,1007.88
2018-03-22T08:16:11.490Z,1007.87
2018-03-22T08:16:51.837Z,1007.88
2018-03-22T08:17:32.294Z,1007.85
2018-03-22T08:18:12.933Z,1007.84
2018-03-22T08:18:53.369Z,1007.89
2018-03-22T08:19:35.348Z,1007.84
2018-03-22T08:20:15.806Z,1007.83
2018-03-22T08:20:56.564Z,1007.86
2018-03-22T08:21:37.182Z,1007.86
2018-03-22T08:22:17.501Z,1007.86
2018-03-22T08:22:58.110Z,1007.81
2018-03-22T08:23:39.278Z,1007.85
2018-03-22T08:24:20.638Z,1007.76
2018-03-22T08:25:01.366Z,1007.81
2018-03-22T08:25:41.982Z,1007.75
2018-03-22T08:26:22.330Z,1007.79
2018-03-22T08:27:02.701Z,1007.83
2018-03-22T08:27:44.134Z,1007.82
2018-03-22T08:28:26.355Z,1007.89
2018-03-22T08:29:07.234Z,1007.88
2018-03-22T08:29:47.370Z,1007.83
2018-03-22T08:30:28.211Z,1007.87
2018-03-22T08:31:09.303Z,1007.86
2018-03-22T08:31:49.727Z,1007.67
2018-03-22T08:32:30.183Z,1007.81
2018-03-22T08:33:11.366Z,1007.83
2018-03-22T08:33:51.803Z,1007.76
2018-03-22T08:34:33.741Z,1007.86
2018-03-22T08:35:15.957Z,1007.78
2018-03-22T08:35:57.204Z,1007.83
2018-03-22T08:36:37.608Z,1007.81
2018-03-22T08:37:17.981Z,1007.73
2018-03-22T08:37:59.400Z,1007.75
2018-03-22T08:38:40.789Z,1007.69
2018-03-22T08:39:21.304Z,1007.68
2018-03-22T08:40:01.733Z,1007.72
2018-03-22T08:40:42.166Z,1007.7
2018-03-22T08:41:23.219Z,1007.69
2018-03-22T08:42:03.352Z,1007.65
2018-03-22T08:42:43.774Z,1007.67
2018-03-22T08:43:24.301Z,1007.66
2018-03-22T08:44:05.405Z,1007.61
2018-03-22T08:44:45.866Z,1007.64
2018-03-22T08:45:28.895Z,1007.67
2018-03-22T08:46:09.360Z,1007.66
2018-03-22T08:46:49.755Z,1007.67
2018-03-22T08:47:31.535Z,1007.67
2018-03-22T08:48:11.859Z,1007.62
2018-03-22T08:48:52.249Z,1007.59
2018-03-22T08:49:34.855Z,1007.5
2018-03-22T08:50:17.037Z,1007.56
2018-03-22T08:50:57.506Z,1007.6
2018-03-22T08:51:38.118Z,1007.6
2018-03-22T08:52:18.576Z,1007.5
2018-03-22T08:52:59.764Z,1007.53
2018-03-22T08:53:40.162Z,1007.42
2018-03-22T08:54:20.604Z,1007.48
2018-03-22T08:55:00.969Z,1007.45
2018-03-22T08:55:41.450Z,1007.4
2018-03-22T08:56:22.837Z,1007.43
2018-03-22T08:57:03.275Z,1007.39
2018-03-22T08:57:43.724Z,1007.29
2018-03-22T08:58:24.886Z,1007.33
2018-03-22T08:59:05.353Z,1007.3
2018-03-22T08:59:46.479Z,1007.27
2018-03-22T09:00:28.348Z,1007.28
2018-03-22T09:01:08.657Z,1007.31
2018-03-22T09:01:49.888Z,1007.2
2018-03-22T09:02:31.114Z,1007.26
2018-03-22T09:03:12.333Z,1007.28
2018-03-22T09:03:52.802Z,1007.29
2018-03-22T09:04:33.244Z,1007.25
2018-03-22T09:05:14.285Z,1007.24
2018-03-22T09:05:55.353Z,1007.25
2018-03-22T09:06:35.837Z,1007.16
2018-03-22T09:07:16.416Z,1007.19
2018-03-22T09:07:56.936Z,1007.13
2018-03-22T09:08:37.237Z,1007.08
2018-03-22T09:09:21.285Z,1007.12
2018-03-22T09:10:01.701Z,1007.12
2018-03-22T09:10:42.059Z,1007.16
2018-03-22T09:11:22.542Z,1007.14
2018-03-22T09:12:04.239Z,1007.14
2018-03-22T09:12:44.432Z,1007.13
2018-03-22T09:13:25.078Z,1007.08
2018-03-22T09:14:05.928Z,1007.08
2018-03-22T09:14:46.398Z,1007.1
2018-03-22T09:15:26.775Z,1007.02
2018-03-22T09:16:07.281Z,1007.13
2018-03-22T09:16:47.697Z,1007.13
2018-03-22T09:17:28.199Z,1007.14